This is the latest recevied weather packets stored in our database for station/object HP1COO-13. If no packets are shown the sender has not sent any weather packets the latest 10 day(s).
| Time | Temp. | Humidity | Pressure | Rain* | Wind** | Luminosity | Snow |
|---|---|---|---|---|---|---|---|
| 1787513894 | 30.56° C | 81% | 1007.3 hPa | 0 mm | - | - | - |
| 1787513262 | 30.56° C | 81% | 1007.2 hPa | 0 mm | - | - | - |
| 1787512628 | 30.56° C | 81% | 1007.4 hPa | 0 mm | - | - | - |
| 1787511995 | 30.56° C | 80% | 1007.8 hPa | 0 mm | - | - | - |
| 1787511362 | 30.56° C | 79% | 1008 hPa | 0 mm | - | - | - |
| 1787510729 | 30.56° C | 78% | 1008.2 hPa | 0 mm | - | - | - |
| 1787510098 | 31.11° C | 77% | 1008.5 hPa | 0 mm | - | - | - |
| 1787509522 | 31.67° C | 75% | 1008.5 hPa | 0 mm | - | - | - |
| 1787509463 | 31.67° C | 75% | 1008.5 hPa | 0 mm | - | - | - |
| 1787508830 | 31.67° C | 76% | 1008.8 hPa | 0 mm | - | - | - |
| 1787508197 | 31.67° C | 75% | 1008.8 hPa | 0 mm | - | - | - |
| 1787507564 | 31.11° C | 75% | 1009.3 hPa | 0 mm | - | - | - |
| 1787506931 | 31.11° C | 78% | 1009.3 hPa | 0 mm | - | - | - |
| 1787506298 | 31.11° C | 78% | 1009.6 hPa | 0 mm | - | - | - |
| 1787505665 | 30° C | 80% | 1009.4 hPa | 0 mm | - | - | - |
| 1787505032 | 28.89° C | 82% | 1009.4 hPa | 0 mm | - | - | - |
| 1787504400 | 27.78° C | 85% | 1009.4 hPa | 0.25 mm | - | - | - |
| 1787503767 | 26.67° C | 90% | 1009.7 hPa | 3.56 mm | - | - | - |
| 1787503133 | 26.11° C | 92% | 1009.6 hPa | 6.35 mm | - | - | - |
| 1787502501 | 25.56° C | 95% | 1010 hPa | 6.35 mm | - | - | - |
| 1787501867 | 25.56° C | 98% | 1010.3 hPa | 6.35 mm | - | - | - |
| 1787501234 | 25° C | 97% | 1010.3 hPa | 6.35 mm | - | - | - |
| 1787500601 | 25° C | 96% | 1010.6 hPa | 6.1 mm | - | - | - |
| 1787499968 | 25.56° C | 95% | 1010.7 hPa | 0 mm | - | - | - |
| 1787499335 | 26.11° C | 94% | 1010.6 hPa | 0 mm | - | - | - |
* Rain latest hour (hover to see other rain measurements)
** Current wind speed in m/s (hover to see current wind gust speed)